首页
METAR-TAF:

METAR-TAF

机场 :

Rankin Inlet, 努那武特, 加拿大

纬度: 62-49N, 经度: 092-07W, 海拔: 31米

当前天气观测

该预报发布于41分钟前的15:00 UTC
风速12节,风向北转西北,有时为17节阵风
温度 10°C
湿度 62%
气压 1007 hPa
能見度: 24.1公里
少量云层高于2900英尺

METAR: CYRT 241500Z 34012G17KT 15SM FEW029 10/03 A2974 RMK SC2 SLP077

时间: 10:41 (15:41 UTC)

预报

该预报发布于4小时和1分钟前的11:40 UTC
预报有效从24日的 12点(UTC)到 24日的 24点(UTC)
风速10节,风向
能見度: 10公里
散云层高于4000英尺

TAF: CYRT 241140Z 2412/2424 35010KT P6SM SCT040 RMK NXT FCST BY 241800Z

超过4000个机场的气象观测和天气预报(METAR&TAF报告)。

可查询的气象台以黄色和红色小点在地图上表示。

将鼠标移到小点上方,可查看气象台名称。

然后点击查看天气观测和预报。

如需切换地图:点击带黑十字的绿色按钮放大地图;点击带横线的绿色按钮缩小地图;或者点击绿色箭头查看邻近地区的地图。


METAR-TAF: